createdAt,value
2018-12-02T00:01:57.349Z,99155.00
2018-12-02T00:04:26.908Z,99145.00
2018-12-02T00:06:56.666Z,99143.00
2018-12-02T00:09:26.775Z,99137.00
2018-12-02T00:11:56.339Z,99139.00
2018-12-02T00:14:26.260Z,99126.00
2018-12-02T00:16:55.793Z,99119.00
2018-12-02T00:19:25.243Z,99119.00
2018-12-02T00:21:54.842Z,99106.00
2018-12-02T00:24:24.208Z,99111.00
2018-12-02T00:26:55.176Z,99094.00
2018-12-02T00:29:24.661Z,99087.00
2018-12-02T00:31:54.117Z,99086.00
2018-12-02T00:34:23.442Z,99079.00
2018-12-02T00:36:53.367Z,99066.00
2018-12-02T00:39:23.255Z,99064.00
2018-12-02T00:41:52.688Z,99068.00
2018-12-02T00:44:22.143Z,99054.00
2018-12-02T00:46:51.610Z,99044.00
2018-12-02T00:49:21.189Z,99055.00
2018-12-02T00:51:50.654Z,99053.00
2018-12-02T00:54:20.273Z,99031.00
2018-12-02T00:56:49.767Z,99033.00
2018-12-02T00:59:19.210Z,99025.00
2018-12-02T01:01:48.573Z,99028.00
2018-12-02T01:04:18.121Z,99031.00
2018-12-02T01:06:47.600Z,99029.00
2018-12-02T01:09:16.964Z,99022.00
2018-12-02T01:11:46.445Z,99022.00
2018-12-02T01:14:15.901Z,99022.00
2018-12-02T01:16:45.473Z,99019.00
2018-12-02T01:19:15.051Z,99019.00
2018-12-02T01:21:44.513Z,99022.00
2018-12-02T01:24:14.104Z,99017.00
2018-12-02T01:26:43.545Z,99010.00
2018-12-02T01:29:12.931Z,99012.00
2018-12-02T01:31:42.470Z,99011.00
2018-12-02T01:34:11.994Z,99002.00
2018-12-02T01:36:41.415Z,98998.00
2018-12-02T01:39:10.876Z,99000.00
2018-12-02T01:41:40.289Z,98998.00
2018-12-02T01:44:09.795Z,98995.00
2018-12-02T01:46:39.152Z,98986.00
2018-12-02T01:49:08.567Z,98988.00
2018-12-02T01:51:37.919Z,98978.00
2018-12-02T01:54:07.649Z,98985.00
2018-12-02T01:56:37.108Z,98978.00
2018-12-02T01:59:07.419Z,98975.00
2018-12-02T02:01:36.909Z,98981.00
2018-12-02T02:04:06.792Z,98968.00
2018-12-02T02:06:37.677Z,98964.00
2018-12-02T02:09:09.718Z,98953.00
2018-12-02T02:11:39.571Z,98958.00
2018-12-02T02:14:09.018Z,98945.00
2018-12-02T02:16:38.883Z,98946.00
2018-12-02T02:19:08.358Z,98946.00
2018-12-02T02:21:37.783Z,98939.00
2018-12-02T02:24:07.584Z,98934.00
2018-12-02T02:26:37.098Z,98929.00
2018-12-02T02:29:06.817Z,98931.00
2018-12-02T02:31:36.951Z,98922.00
2018-12-02T02:34:06.918Z,98924.00
2018-12-02T02:36:36.271Z,98925.00
2018-12-02T02:39:08.582Z,98915.00
2018-12-02T02:41:37.964Z,98911.00
2018-12-02T02:44:07.423Z,98906.00
2018-12-02T02:46:36.969Z,98906.00
2018-12-02T02:49:07.428Z,98905.00
2018-12-02T02:51:36.787Z,98901.00
2018-12-02T02:54:06.799Z,98906.00
2018-12-02T02:56:36.376Z,98894.00
2018-12-02T02:59:06.564Z,98885.00
2018-12-02T03:01:36.197Z,98885.00
2018-12-02T03:04:05.787Z,98876.00
2018-12-02T03:06:35.354Z,98883.00
2018-12-02T03:09:07.971Z,98875.00
2018-12-02T03:11:37.397Z,98862.00
2018-12-02T03:14:06.854Z,98866.00
2018-12-02T03:16:36.296Z,98864.00
2018-12-02T03:19:06.042Z,98861.00
2018-12-02T03:21:35.522Z,98855.00
2018-12-02T03:24:04.993Z,98855.00
2018-12-02T03:26:34.512Z,98856.00
2018-12-02T03:29:04.035Z,98842.00
2018-12-02T03:31:33.557Z,98849.00
2018-12-02T03:34:02.894Z,98846.00
2018-12-02T03:36:32.320Z,98839.00
2018-12-02T03:39:01.785Z,98837.00
2018-12-02T03:41:31.205Z,98825.00
2018-12-02T03:44:01.481Z,98822.00
2018-12-02T03:46:31.028Z,98819.00
2018-12-02T03:49:00.543Z,98817.00
2018-12-02T03:51:29.898Z,98816.00
2018-12-02T03:54:00.198Z,98804.00
2018-12-02T03:56:29.668Z,98807.00
2018-12-02T03:58:59.113Z,98797.00
2018-12-02T04:01:28.682Z,98805.00
2018-12-02T04:03:58.199Z,98802.00
2018-12-02T04:06:27.558Z,98801.00
2018-12-02T04:08:57.237Z,98807.00
2018-12-02T04:11:26.574Z,98803.00
2018-12-02T04:13:56.117Z,98793.00
2018-12-02T04:16:25.580Z,98802.00
2018-12-02T04:18:55.554Z,98784.00
2018-12-02T04:21:25.056Z,98792.00
2018-12-02T04:23:54.571Z,98780.00
2018-12-02T04:26:23.960Z,98775.00
2018-12-02T04:28:53.387Z,98766.00
2018-12-02T04:31:22.800Z,98751.00
2018-12-02T04:33:52.690Z,98763.00
2018-12-02T04:36:22.413Z,98756.00
2018-12-02T04:38:51.861Z,98753.00
2018-12-02T04:41:21.280Z,98749.00
2018-12-02T04:43:50.765Z,98749.00
2018-12-02T04:46:20.188Z,98737.00
2018-12-02T04:48:49.633Z,98737.00
2018-12-02T04:51:19.927Z,98743.00
2018-12-02T04:53:49.499Z,98741.00
2018-12-02T04:56:18.963Z,98732.00
2018-12-02T04:58:48.446Z,98729.00
2018-12-02T05:01:18.367Z,98713.00
2018-12-02T05:03:48.718Z,98705.00
2018-12-02T05:06:18.095Z,98709.00
2018-12-02T05:08:47.667Z,98715.00
2018-12-02T05:11:17.119Z,98704.00
2018-12-02T05:13:46.765Z,98698.00
2018-12-02T05:16:16.115Z,98693.00
2018-12-02T05:18:45.484Z,98697.00
2018-12-02T05:21:14.920Z,98683.00
2018-12-02T05:23:45.100Z,98675.00
2018-12-02T05:26:14.578Z,98672.00
2018-12-02T05:28:44.042Z,98672.00
2018-12-02T05:31:13.444Z,98677.00
2018-12-02T05:33:42.948Z,98671.00
2018-12-02T05:36:13.615Z,98663.00
2018-12-02T05:38:43.124Z,98663.00
2018-12-02T05:41:12.504Z,98665.00
2018-12-02T05:43:42.740Z,98662.00
2018-12-02T05:46:12.108Z,98665.00
2018-12-02T05:48:41.636Z,98666.00
2018-12-02T05:51:11.064Z,98656.00
2018-12-02T05:53:40.883Z,98658.00
2018-12-02T05:56:10.339Z,98657.00
2018-12-02T05:58:40.156Z,98644.00
2018-12-02T06:01:09.746Z,98647.00
2018-12-02T06:03:40.093Z,98643.00
2018-12-02T06:06:09.888Z,98631.00
2018-12-02T06:08:39.381Z,98642.00
2018-12-02T06:11:08.890Z,98637.00
2018-12-02T06:13:38.375Z,98644.00
2018-12-02T06:16:08.213Z,98653.00
2018-12-02T06:18:37.708Z,98661.00
2018-12-02T06:21:07.153Z,98655.00
2018-12-02T06:23:36.599Z,98658.00
2018-12-02T06:26:06.367Z,98653.00
2018-12-02T06:28:35.725Z,98652.00
2018-12-02T06:31:05.239Z,98653.00
2018-12-02T06:33:34.680Z,98642.00
2018-12-02T06:36:05.127Z,98629.00
2018-12-02T06:38:34.714Z,98629.00
2018-12-02T06:41:04.632Z,98626.00
2018-12-02T06:43:34.115Z,98624.00
2018-12-02T06:46:03.603Z,98634.00
2018-12-02T06:48:33.031Z,98626.00
2018-12-02T06:51:02.551Z,98634.00
2018-12-02T06:53:32.769Z,98628.00
2018-12-02T06:56:20.889Z,98632.00
2018-12-02T07:01:31.877Z,98625.00
2018-12-02T07:04:18.226Z,98618.00
2018-12-02T07:06:47.858Z,98617.00
2018-12-02T07:09:18.863Z,98614.00
2018-12-02T07:11:47.319Z,98606.00
2018-12-02T07:14:16.774Z,98604.00
2018-12-02T07:16:46.528Z,98598.00
2018-12-02T07:19:27.939Z,98588.00
2018-12-02T07:22:06.731Z,98591.00
2018-12-02T07:24:40.991Z,98585.00
2018-12-02T07:27:14.328Z,98583.00
2018-12-02T07:29:43.975Z,98590.00
2018-12-02T07:32:13.737Z,98586.00
2018-12-02T07:34:43.211Z,98576.00
2018-12-02T07:37:17.104Z,98580.00
2018-12-02T07:40:27.743Z,98579.00
2018-12-02T07:42:57.203Z,98572.00
2018-12-02T07:45:26.675Z,98571.00
2018-12-02T07:47:56.214Z,98570.00
2018-12-02T07:50:25.697Z,98568.00
2018-12-02T07:52:55.095Z,98565.00
2018-12-02T07:55:24.588Z,98558.00
2018-12-02T07:57:54.646Z,98563.00
2018-12-02T08:00:24.030Z,98559.00
2018-12-02T08:02:53.516Z,98564.00
2018-12-02T08:05:23.138Z,98560.00
2018-12-02T08:07:53.126Z,98558.00
2018-12-02T08:10:22.573Z,98562.00
2018-12-02T08:12:53.119Z,98550.00
2018-12-02T08:15:23.374Z,98552.00
2018-12-02T08:17:53.504Z,98545.00
2018-12-02T08:20:22.919Z,98549.00
2018-12-02T08:22:52.363Z,98547.00
2018-12-02T08:25:21.941Z,98543.00
2018-12-02T08:27:51.603Z,98543.00
2018-12-02T08:30:23.812Z,98530.00
2018-12-02T08:32:53.816Z,98530.00
2018-12-02T08:35:27.509Z,98536.00
2018-12-02T08:38:01.223Z,98525.00
2018-12-02T08:40:30.681Z,98520.00
2018-12-02T08:43:00.233Z,98515.00
2018-12-02T08:45:29.787Z,98510.00
2018-12-02T08:47:59.880Z,98507.00
2018-12-02T08:50:29.304Z,98507.00
2018-12-02T08:52:58.689Z,98502.00
2018-12-02T08:55:28.201Z,98498.00
2018-12-02T08:57:57.671Z,98493.00
2018-12-02T09:00:27.665Z,98481.00
2018-12-02T09:03:02.430Z,98485.00
2018-12-02T09:05:31.944Z,98478.00
2018-12-02T09:08:02.257Z,98477.00
2018-12-02T09:10:33.201Z,98477.00
2018-12-02T09:13:08.290Z,98468.00
2018-12-02T09:15:37.757Z,98463.00
2018-12-02T09:18:10.572Z,98476.00
2018-12-02T09:20:40.176Z,98465.00
2018-12-02T09:23:11.619Z,98466.00
2018-12-02T09:25:41.200Z,98457.00
2018-12-02T09:28:11.004Z,98461.00
2018-12-02T09:30:40.628Z,98456.00
2018-12-02T09:33:10.195Z,98441.00
2018-12-02T09:38:57.457Z,98433.00
2018-12-02T09:41:26.906Z,98436.00
2018-12-02T09:43:56.470Z,98426.00
2018-12-02T09:46:25.963Z,98422.00
2018-12-02T09:48:55.509Z,98424.00
2018-12-02T09:51:25.032Z,98432.00
2018-12-02T09:53:54.743Z,98424.00
2018-12-02T09:56:24.252Z,98418.00
2018-12-02T09:58:54.252Z,98409.00
2018-12-02T10:01:23.817Z,98407.00
2018-12-02T10:03:53.398Z,98413.00
2018-12-02T10:06:22.843Z,98400.00
2018-12-02T10:08:52.408Z,98391.00
2018-12-02T10:11:21.854Z,98391.00
2018-12-02T10:13:51.238Z,98387.00
2018-12-02T10:16:20.621Z,98387.00
2018-12-02T10:18:50.069Z,98378.00
2018-12-02T10:21:19.559Z,98372.00
2018-12-02T10:23:48.954Z,98367.00
2018-12-02T10:26:18.411Z,98365.00
2018-12-02T10:28:48.467Z,98356.00
2018-12-02T10:31:17.921Z,98352.00
2018-12-02T10:33:47.521Z,98352.00
2018-12-02T10:36:16.895Z,98350.00
2018-12-02T10:38:47.585Z,98347.00
2018-12-02T10:41:16.960Z,98339.00
2018-12-02T10:43:46.451Z,98332.00
2018-12-02T10:46:15.938Z,98331.00
2018-12-02T10:48:45.369Z,98325.00
2018-12-02T10:51:14.887Z,98318.00
2018-12-02T10:53:44.236Z,98309.00
2018-12-02T10:56:13.775Z,98309.00
2018-12-02T10:58:43.192Z,98311.00
2018-12-02T11:01:18.287Z,98305.00
2018-12-02T11:03:48.696Z,98305.00
2018-12-02T11:06:18.054Z,98301.00
2018-12-02T11:08:47.442Z,98293.00
2018-12-02T11:11:16.847Z,98297.00
2018-12-02T11:13:46.281Z,98286.00
2018-12-02T11:16:15.742Z,98286.00
2018-12-02T11:18:45.211Z,98281.00
2018-12-02T11:21:15.230Z,98285.00
2018-12-02T11:23:44.764Z,98273.00
2018-12-02T11:26:14.393Z,98272.00
2018-12-02T11:28:43.842Z,98267.00
2018-12-02T11:31:13.378Z,98264.00
2018-12-02T11:33:43.318Z,98258.00
2018-12-02T11:36:12.783Z,98262.00
2018-12-02T11:38:42.239Z,98260.00
2018-12-02T11:41:11.749Z,98247.00
2018-12-02T11:43:41.231Z,98251.00
2018-12-02T11:46:11.198Z,98257.00
2018-12-02T11:48:40.620Z,98251.00
2018-12-02T11:51:10.176Z,98262.00
2018-12-02T11:53:39.799Z,98259.00
2018-12-02T11:56:09.317Z,98255.00
2018-12-02T11:58:38.779Z,98252.00
2018-12-02T12:01:08.566Z,98251.00
2018-12-02T12:03:38.071Z,98248.00
2018-12-02T12:06:07.558Z,98252.00
2018-12-02T12:08:36.980Z,98245.00
2018-12-02T12:11:06.726Z,98240.00
2018-12-02T12:13:36.295Z,98235.00
2018-12-02T12:16:05.889Z,98241.00
2018-12-02T12:18:35.390Z,98237.00
2018-12-02T12:21:04.879Z,98231.00
2018-12-02T12:23:34.502Z,98234.00
2018-12-02T12:26:04.112Z,98225.00
2018-12-02T12:28:33.588Z,98213.00
2018-12-02T12:31:03.022Z,98221.00
2018-12-02T12:33:32.986Z,98228.00
2018-12-02T12:36:02.554Z,98221.00
2018-12-02T12:38:31.948Z,98215.00
2018-12-02T12:41:01.368Z,98214.00
2018-12-02T12:43:34.307Z,98217.00
2018-12-02T12:46:04.243Z,98206.00
2018-12-02T12:48:34.209Z,98210.00
2018-12-02T12:51:03.737Z,98206.00
2018-12-02T12:53:34.095Z,98198.00
2018-12-02T12:56:03.566Z,98192.00
2018-12-02T12:58:33.794Z,98198.00
2018-12-02T13:01:03.369Z,98192.00
2018-12-02T13:03:32.768Z,98193.00
2018-12-02T13:06:02.719Z,98192.00
2018-12-02T13:08:32.849Z,98185.00
2018-12-02T13:11:02.256Z,98185.00
2018-12-02T13:13:31.948Z,98180.00
2018-12-02T13:16:02.832Z,98181.00
2018-12-02T13:18:32.232Z,98182.00
2018-12-02T13:21:01.694Z,98174.00
2018-12-02T13:23:31.166Z,98180.00
2018-12-02T13:26:00.622Z,98169.00
2018-12-02T13:28:30.139Z,98174.00
2018-12-02T13:31:00.495Z,98173.00
2018-12-02T13:33:30.447Z,98168.00
2018-12-02T13:35:59.863Z,98171.00
2018-12-02T13:38:29.415Z,98178.00
2018-12-02T13:40:59.478Z,98166.00
2018-12-02T13:43:29.634Z,98171.00
2018-12-02T13:45:58.993Z,98161.00
2018-12-02T13:48:29.103Z,98168.00
2018-12-02T13:50:59.194Z,98171.00
2018-12-02T13:53:28.742Z,98163.00
2018-12-02T13:55:58.967Z,98166.00
2018-12-02T13:58:28.632Z,98156.00
2018-12-02T14:00:58.055Z,98159.00
2018-12-02T14:03:27.732Z,98159.00
2018-12-02T14:05:57.092Z,98169.00
2018-12-02T14:08:26.448Z,98161.00
2018-12-02T14:10:55.915Z,98167.00
2018-12-02T14:13:28.375Z,98157.00
2018-12-02T14:17:12.211Z,98154.00
2018-12-02T14:19:44.219Z,98150.00
2018-12-02T14:22:13.648Z,98150.00
2018-12-02T14:24:43.236Z,98149.00
2018-12-02T14:27:13.913Z,98139.00
2018-12-02T14:29:51.211Z,98140.00
2018-12-02T14:32:22.367Z,98135.00
2018-12-02T14:34:52.261Z,98144.00
2018-12-02T14:37:21.901Z,98140.00
2018-12-02T14:39:51.428Z,98146.00
2018-12-02T14:42:20.918Z,98142.00
2018-12-02T14:44:50.288Z,98132.00
2018-12-02T14:47:20.390Z,98137.00
2018-12-02T14:49:49.988Z,98135.00
2018-12-02T14:52:19.414Z,98134.00
2018-12-02T14:54:48.895Z,98151.00
2018-12-02T14:57:18.333Z,98137.00
2018-12-02T14:59:47.703Z,98139.00
2018-12-02T15:02:17.206Z,98146.00
2018-12-02T15:04:46.709Z,98133.00
2018-12-02T15:07:16.068Z,98140.00
2018-12-02T15:09:45.534Z,98142.00
2018-12-02T15:12:15.056Z,98142.00
2018-12-02T15:14:44.454Z,98126.00
2018-12-02T15:17:13.812Z,98138.00
2018-12-02T15:19:43.235Z,98141.00
2018-12-02T15:22:12.677Z,98143.00
2018-12-02T15:24:42.188Z,98144.00
2018-12-02T15:27:11.706Z,98146.00
2018-12-02T15:29:41.327Z,98150.00
2018-12-02T15:32:10.855Z,98147.00
2018-12-02T15:34:40.452Z,98138.00
2018-12-02T15:37:09.927Z,98133.00
2018-12-02T15:39:39.345Z,98140.00
2018-12-02T15:42:08.825Z,98144.00
2018-12-02T15:44:38.302Z,98128.00
2018-12-02T15:47:07.990Z,98142.00
2018-12-02T15:49:37.516Z,98145.00
2018-12-02T15:52:07.499Z,98140.00
2018-12-02T15:54:37.051Z,98127.00
2018-12-02T15:57:06.619Z,98135.00
2018-12-02T15:59:36.153Z,98134.00
2018-12-02T16:02:05.928Z,98126.00
2018-12-02T16:04:35.656Z,98136.00
2018-12-02T16:07:05.187Z,98133.00
2018-12-02T16:09:34.806Z,98135.00
2018-12-02T16:12:05.007Z,98141.00
2018-12-02T16:14:34.389Z,98142.00
2018-12-02T16:17:04.396Z,98140.00
2018-12-02T16:19:34.809Z,98135.00
2018-12-02T16:22:04.492Z,98137.00
2018-12-02T16:24:33.946Z,98145.00
2018-12-02T16:27:03.650Z,98134.00
2018-12-02T16:29:33.194Z,98148.00
2018-12-02T16:32:02.635Z,98141.00
2018-12-02T16:34:32.094Z,98139.00
2018-12-02T16:37:01.710Z,98134.00
2018-12-02T16:39:31.098Z,98138.00
2018-12-02T16:42:00.983Z,98145.00
2018-12-02T16:44:31.388Z,98142.00
2018-12-02T16:47:01.065Z,98149.00
2018-12-02T16:49:30.577Z,98144.00
2018-12-02T16:52:00.264Z,98146.00
2018-12-02T16:54:29.853Z,98148.00
2018-12-02T16:56:59.742Z,98139.00
2018-12-02T16:59:32.570Z,98145.00
2018-12-02T17:02:05.230Z,98146.00
2018-12-02T17:04:33.965Z,98148.00
2018-12-02T17:07:03.662Z,98154.00
2018-12-02T17:09:33.157Z,98157.00
2018-12-02T17:12:02.713Z,98148.00
2018-12-02T17:14:32.161Z,98149.00
2018-12-02T17:17:01.715Z,98147.00
2018-12-02T17:19:31.550Z,98152.00
2018-12-02T17:22:01.288Z,98160.00
2018-12-02T17:24:33.263Z,98152.00
2018-12-02T17:27:03.074Z,98155.00
2018-12-02T17:29:32.819Z,98158.00
2018-12-02T17:32:08.331Z,98168.00
2018-12-02T17:34:37.869Z,98155.00
2018-12-02T17:37:08.263Z,98165.00
2018-12-02T17:39:43.997Z,98168.00
2018-12-02T17:42:14.163Z,98167.00
2018-12-02T17:44:43.691Z,98171.00
2018-12-02T17:47:14.043Z,98172.00
2018-12-02T17:49:43.614Z,98168.00
2018-12-02T17:52:13.224Z,98172.00
2018-12-02T17:54:42.748Z,98172.00
2018-12-02T17:57:12.295Z,98176.00
2018-12-02T17:59:41.838Z,98182.00
2018-12-02T18:02:11.995Z,98175.00
2018-12-02T18:04:41.599Z,98178.00
2018-12-02T18:07:11.230Z,98188.00
2018-12-02T18:09:40.691Z,98187.00
2018-12-02T18:12:11.332Z,98179.00
2018-12-02T18:14:40.777Z,98186.00
2018-12-02T18:17:10.345Z,98182.00
2018-12-02T18:19:39.872Z,98198.00
2018-12-02T18:22:09.324Z,98202.00
2018-12-02T18:24:38.715Z,98197.00
2018-12-02T18:27:08.287Z,98199.00
2018-12-02T18:29:37.698Z,98198.00
2018-12-02T18:32:07.304Z,98195.00
2018-12-02T18:34:37.005Z,98188.00
2018-12-02T18:37:09.391Z,98188.00
2018-12-02T18:39:38.820Z,98187.00
2018-12-02T18:42:09.447Z,98199.00
2018-12-02T18:44:38.827Z,98198.00
2018-12-02T18:47:08.283Z,98201.00
2018-12-02T18:49:37.747Z,98201.00
2018-12-02T18:52:07.792Z,98203.00
2018-12-02T18:54:37.252Z,98188.00
2018-12-02T18:57:07.232Z,98202.00
2018-12-02T18:59:36.682Z,98213.00
2018-12-02T19:02:07.033Z,98200.00
2018-12-02T19:04:36.434Z,98205.00
2018-12-02T19:07:06.018Z,98209.00
2018-12-02T19:09:35.515Z,98211.00
2018-12-02T19:12:05.312Z,98209.00
2018-12-02T19:14:35.028Z,98207.00
2018-12-02T19:17:04.647Z,98211.00
2018-12-02T19:19:34.076Z,98201.00
2018-12-02T19:22:03.508Z,98202.00
2018-12-02T19:24:33.394Z,98208.00
2018-12-02T19:27:02.860Z,98207.00
2018-12-02T19:29:32.309Z,98220.00
2018-12-02T19:32:01.807Z,98218.00
2018-12-02T19:34:31.341Z,98214.00
2018-12-02T19:37:04.790Z,98214.00
2018-12-02T19:39:34.306Z,98214.00
2018-12-02T19:42:03.755Z,98216.00
2018-12-02T19:44:33.189Z,98230.00
2018-12-02T19:47:02.533Z,98235.00
2018-12-02T19:49:32.539Z,98231.00
2018-12-02T19:52:01.979Z,98233.00
2018-12-02T19:54:31.761Z,98231.00
2018-12-02T19:57:01.139Z,98238.00
2018-12-02T19:59:30.574Z,98248.00
2018-12-02T20:02:00.010Z,98237.00
2018-12-02T20:04:29.474Z,98227.00
2018-12-02T20:06:58.855Z,98236.00
2018-12-02T20:09:28.229Z,98226.00
2018-12-02T20:11:57.584Z,98229.00
2018-12-02T20:14:27.151Z,98229.00
2018-12-02T20:16:56.560Z,98218.00
2018-12-02T20:19:31.281Z,98228.00
2018-12-02T20:22:00.812Z,98231.00
2018-12-02T20:24:35.488Z,98231.00
2018-12-02T20:27:05.238Z,98239.00
2018-12-02T20:29:36.127Z,98236.00
2018-12-02T20:32:07.752Z,98237.00
2018-12-02T20:34:37.455Z,98235.00
2018-12-02T20:37:07.930Z,98242.00
2018-12-02T20:39:37.307Z,98241.00
2018-12-02T20:42:07.241Z,98237.00
2018-12-02T20:44:36.675Z,98250.00
2018-12-02T20:47:06.849Z,98252.00
2018-12-02T20:49:36.238Z,98249.00
2018-12-02T20:52:06.075Z,98237.00
2018-12-02T20:54:35.604Z,98238.00
2018-12-02T20:57:05.213Z,98239.00
2018-12-02T20:59:34.696Z,98246.00
2018-12-02T21:02:04.258Z,98242.00
2018-12-02T21:04:33.815Z,98252.00
2018-12-02T21:07:03.923Z,98249.00
2018-12-02T21:09:33.384Z,98247.00
2018-12-02T21:12:03.715Z,98245.00
2018-12-02T21:14:33.209Z,98250.00
2018-12-02T21:17:03.423Z,98254.00
2018-12-02T21:19:32.992Z,98241.00
2018-12-02T21:22:02.568Z,98251.00
2018-12-02T21:24:32.083Z,98255.00
2018-12-02T21:27:01.536Z,98245.00
2018-12-02T21:29:31.062Z,98243.00
2018-12-02T21:32:00.806Z,98254.00
2018-12-02T21:34:30.331Z,98244.00
2018-12-02T21:36:59.711Z,98254.00
2018-12-02T21:39:29.202Z,98248.00
2018-12-02T21:41:58.752Z,98253.00
2018-12-02T21:44:28.499Z,98254.00
2018-12-02T21:46:58.654Z,98253.00
2018-12-02T21:49:28.207Z,98249.00
2018-12-02T21:51:57.830Z,98250.00
2018-12-02T21:56:56.927Z,98255.00
2018-12-02T21:59:26.338Z,98253.00
2018-12-02T22:01:55.696Z,98258.00
2018-12-02T22:04:25.080Z,98255.00
2018-12-02T22:06:54.554Z,98254.00
2018-12-02T22:09:24.132Z,98258.00
2018-12-02T22:11:53.539Z,98256.00
2018-12-02T22:14:22.891Z,98254.00
2018-12-02T22:16:52.314Z,98259.00
2018-12-02T22:19:21.779Z,98270.00
2018-12-02T22:21:51.230Z,98265.00
2018-12-02T22:24:20.602Z,98262.00
2018-12-02T22:26:50.124Z,98268.00
2018-12-02T22:29:19.611Z,98266.00
2018-12-02T22:31:49.017Z,98264.00
2018-12-02T22:34:18.434Z,98265.00
2018-12-02T22:36:47.913Z,98267.00
2018-12-02T22:39:17.385Z,98271.00
2018-12-02T22:41:46.785Z,98270.00
2018-12-02T22:44:16.189Z,98271.00
2018-12-02T22:46:46.423Z,98261.00
2018-12-02T22:49:15.894Z,98269.00
2018-12-02T22:51:45.304Z,98259.00
2018-12-02T22:54:14.701Z,98260.00
2018-12-02T22:56:44.067Z,98266.00
2018-12-02T22:59:13.444Z,98255.00
2018-12-02T23:01:47.975Z,98257.00
2018-12-02T23:04:17.390Z,98250.00
2018-12-02T23:06:46.833Z,98245.00
2018-12-02T23:09:16.256Z,98235.00
2018-12-02T23:11:45.635Z,98239.00
2018-12-02T23:14:15.124Z,98244.00
2018-12-02T23:17:00.293Z,98233.00
2018-12-02T23:19:29.768Z,98232.00
2018-12-02T23:21:59.182Z,98237.00
2018-12-02T23:24:28.586Z,98237.00
2018-12-02T23:26:57.981Z,98234.00
2018-12-02T23:29:27.389Z,98226.00
2018-12-02T23:31:56.935Z,98227.00
2018-12-02T23:34:26.380Z,98227.00
2018-12-02T23:36:55.811Z,98232.00
2018-12-02T23:39:25.229Z,98221.00
2018-12-02T23:41:54.699Z,98228.00
2018-12-02T23:44:24.083Z,98222.00
2018-12-02T23:47:00.143Z,98236.00
2018-12-02T23:49:29.573Z,98232.00
2018-12-02T23:51:59.014Z,98226.00
2018-12-02T23:54:28.412Z,98213.00
2018-12-02T23:56:57.821Z,98203.00
2018-12-02T23:59:27.269Z,98217.00
